sensor_id;sensor_type;location;lat;lon;timestamp;pressure;altitude;pressure_sealevel;temperature;humidity
55066;BME280;40964;42.114;24.220;2024-01-30T00:01:37;99902.19;;;0.70;69.03
55066;BME280;40964;42.114;24.220;2024-01-30T00:04:02;99903.03;;;0.71;69.21
55066;BME280;40964;42.114;24.220;2024-01-30T00:06:28;99904.69;;;0.72;69.41
55066;BME280;40964;42.114;24.220;2024-01-30T00:08:53;99907.97;;;0.61;70.56
55066;BME280;40964;42.114;24.220;2024-01-30T00:11:19;99907.97;;;0.48;71.85
55066;BME280;40964;42.114;24.220;2024-01-30T00:13:44;99912.09;;;0.51;71.59
55066;BME280;40964;42.114;24.220;2024-01-30T00:16:23;99905.78;;;0.42;72.95
55066;BME280;40964;42.114;24.220;2024-01-30T00:18:50;99911.59;;;0.46;73.06
55066;BME280;40964;42.114;24.220;2024-01-30T00:21:16;99897.50;;;0.37;72.25
55066;BME280;40964;42.114;24.220;2024-01-30T00:23:41;99911.16;;;0.52;72.48
55066;BME280;40964;42.114;24.220;2024-01-30T00:26:06;99903.31;;;0.53;73.02
55066;BME280;40964;42.114;24.220;2024-01-30T00:28:32;99906.81;;;0.52;72.67
55066;BME280;40964;42.114;24.220;2024-01-30T00:30:57;99897.94;;;0.56;71.44
55066;BME280;40964;42.114;24.220;2024-01-30T00:33:23;99909.13;;;0.57;71.86
55066;BME280;40964;42.114;24.220;2024-01-30T00:35:48;99904.56;;;0.61;71.66
55066;BME280;40964;42.114;24.220;2024-01-30T00:38:13;99910.56;;;0.61;71.48
55066;BME280;40964;42.114;24.220;2024-01-30T00:40:39;99902.19;;;0.57;70.90
55066;BME280;40964;42.114;24.220;2024-01-30T00:43:04;99904.38;;;0.64;71.05
55066;BME280;40964;42.114;24.220;2024-01-30T00:45:31;99907.59;;;0.67;70.86
55066;BME280;40964;42.114;24.220;2024-01-30T00:47:56;99913.81;;;0.65;71.03
55066;BME280;40964;42.114;24.220;2024-01-30T00:50:21;99907.97;;;0.61;70.49
55066;BME280;40964;42.114;24.220;2024-01-30T00:52:47;99917.72;;;0.57;70.73
55066;BME280;40964;42.114;24.220;2024-01-30T00:55:12;99917.00;;;0.55;71.65
55066;BME280;40964;42.114;24.220;2024-01-30T00:57:39;99915.63;;;0.50;72.25
55066;BME280;40964;42.114;24.220;2024-01-30T01:00:05;99911.28;;;0.50;72.88
55066;BME280;40964;42.114;24.220;2024-01-30T01:02:34;99910.16;;;0.54;73.58
55066;BME280;40964;42.114;24.220;2024-01-30T01:04:59;99908.69;;;0.50;73.77
55066;BME280;40964;42.114;24.220;2024-01-30T01:07:25;99914.19;;;0.46;73.29
55066;BME280;40964;42.114;24.220;2024-01-30T01:09:50;99900.69;;;0.41;74.34
55066;BME280;40964;42.114;24.220;2024-01-30T01:12:16;99902.91;;;0.47;73.83
55066;BME280;40964;42.114;24.220;2024-01-30T01:14:41;99907.25;;;0.46;73.37
55066;BME280;40964;42.114;24.220;2024-01-30T01:17:07;99903.50;;;0.50;73.18
55066;BME280;40964;42.114;24.220;2024-01-30T01:19:32;99903.84;;;0.59;73.39
55066;BME280;40964;42.114;24.220;2024-01-30T01:21:58;99902.59;;;0.51;73.49
55066;BME280;40964;42.114;24.220;2024-01-30T01:24:23;99895.88;;;0.62;73.05
55066;BME280;40964;42.114;24.220;2024-01-30T01:26:49;99896.06;;;0.71;73.52
55066;BME280;40964;42.114;24.220;2024-01-30T01:29:15;99890.81;;;0.73;73.07
55066;BME280;40964;42.114;24.220;2024-01-30T01:31:41;99884.06;;;0.70;72.55
55066;BME280;40964;42.114;24.220;2024-01-30T01:34:12;99889.69;;;0.77;72.88
55066;BME280;40964;42.114;24.220;2024-01-30T01:36:39;99896.72;;;0.75;72.17
55066;BME280;40964;42.114;24.220;2024-01-30T01:39:04;99896.63;;;0.64;71.37
55066;BME280;40964;42.114;24.220;2024-01-30T01:41:31;99890.59;;;0.63;71.62
55066;BME280;40964;42.114;24.220;2024-01-30T01:43:57;99900.75;;;0.66;71.18
55066;BME280;40964;42.114;24.220;2024-01-30T01:46:23;99897.94;;;0.69;70.71
55066;BME280;40964;42.114;24.220;2024-01-30T01:48:49;99887.81;;;0.66;70.81
55066;BME280;40964;42.114;24.220;2024-01-30T01:51:15;99865.63;;;0.49;71.77
55066;BME280;40964;42.114;24.220;2024-01-30T01:53:41;99888.81;;;0.51;72.91
55066;BME280;40964;42.114;24.220;2024-01-30T01:56:06;99887.97;;;0.50;72.94
55066;BME280;40964;42.114;24.220;2024-01-30T01:58:32;99894.09;;;0.49;72.73
55066;BME280;40964;42.114;24.220;2024-01-30T02:00:58;99886.09;;;0.27;73.31
55066;BME280;40964;42.114;24.220;2024-01-30T02:03:24;99889.94;;;0.07;74.66
55066;BME280;40964;42.114;24.220;2024-01-30T02:05:52;99883.59;;;-0.02;75.13
55066;BME280;40964;42.114;24.220;2024-01-30T02:08:18;99889.34;;;-0.11;75.34
55066;BME280;40964;42.114;24.220;2024-01-30T02:10:44;99886.81;;;-0.25;75.30
55066;BME280;40964;42.114;24.220;2024-01-30T02:13:09;99889.88;;;-0.33;75.50
55066;BME280;40964;42.114;24.220;2024-01-30T02:15:35;99890.25;;;-0.39;75.37
55066;BME280;40964;42.114;24.220;2024-01-30T02:18:00;99894.78;;;-0.42;75.70
55066;BME280;40964;42.114;24.220;2024-01-30T02:20:28;99888.81;;;-0.57;75.69
55066;BME280;40964;42.114;24.220;2024-01-30T02:22:55;99861.41;;;-0.74;76.05
55066;BME280;40964;42.114;24.220;2024-01-30T02:25:38;99886.50;;;-0.62;75.60
55066;BME280;40964;42.114;24.220;2024-01-30T02:28:09;99892.41;;;-0.60;75.61
55066;BME280;40964;42.114;24.220;2024-01-30T02:30:35;99893.59;;;-0.65;75.85
55066;BME280;40964;42.114;24.220;2024-01-30T02:33:01;99898.50;;;-0.61;75.77
55066;BME280;40964;42.114;24.220;2024-01-30T02:35:26;99905.69;;;-0.66;75.02
55066;BME280;40964;42.114;24.220;2024-01-30T02:37:52;99900.00;;;-0.71;75.00
55066;BME280;40964;42.114;24.220;2024-01-30T02:40:17;99904.34;;;-0.71;74.61
55066;BME280;40964;42.114;24.220;2024-01-30T02:42:42;99896.47;;;-0.70;74.73
55066;BME280;40964;42.114;24.220;2024-01-30T02:45:09;99897.41;;;-0.71;75.41
55066;BME280;40964;42.114;24.220;2024-01-30T02:47:36;99896.84;;;-0.76;75.29
55066;BME280;40964;42.114;24.220;2024-01-30T02:50:01;99896.22;;;-0.79;75.65
55066;BME280;40964;42.114;24.220;2024-01-30T02:52:27;99894.47;;;-0.79;76.01
55066;BME280;40964;42.114;24.220;2024-01-30T02:54:52;99892.88;;;-0.81;75.99
55066;BME280;40964;42.114;24.220;2024-01-30T02:57:17;99892.88;;;-0.81;76.11
55066;BME280;40964;42.114;24.220;2024-01-30T02:59:43;99897.97;;;-0.80;76.44
55066;BME280;40964;42.114;24.220;2024-01-30T03:02:08;99895.56;;;-0.83;77.40
55066;BME280;40964;42.114;24.220;2024-01-30T03:04:34;99899.34;;;-0.74;76.57
55066;BME280;40964;42.114;24.220;2024-01-30T03:06:59;99899.16;;;-0.71;77.04
55066;BME280;40964;42.114;24.220;2024-01-30T03:09:24;99904.03;;;-0.67;77.60
55066;BME280;40964;42.114;24.220;2024-01-30T03:11:50;99880.25;;;-0.72;77.69
55066;BME280;40964;42.114;24.220;2024-01-30T03:14:16;99896.56;;;-0.57;77.02
55066;BME280;40964;42.114;24.220;2024-01-30T03:16:41;99894.22;;;-0.47;77.01
55066;BME280;40964;42.114;24.220;2024-01-30T03:19:07;99848.22;;;-0.69;76.32
55066;BME280;40964;42.114;24.220;2024-01-30T03:21:35;99891.38;;;-0.43;75.98
55066;BME280;40964;42.114;24.220;2024-01-30T03:24:00;99882.31;;;-0.36;76.48
55066;BME280;40964;42.114;24.220;2024-01-30T03:26:26;99890.06;;;-0.36;76.10
55066;BME280;40964;42.114;24.220;2024-01-30T03:28:51;99893.50;;;-0.35;76.22
55066;BME280;40964;42.114;24.220;2024-01-30T03:31:17;99876.59;;;-0.41;76.88
55066;BME280;40964;42.114;24.220;2024-01-30T03:33:42;99883.16;;;-0.35;76.98
55066;BME280;40964;42.114;24.220;2024-01-30T03:36:08;99885.22;;;-0.28;76.96
55066;BME280;40964;42.114;24.220;2024-01-30T03:38:34;99880.72;;;-0.24;77.07
55066;BME280;40964;42.114;24.220;2024-01-30T03:41:00;99882.16;;;-0.20;76.72
55066;BME280;40964;42.114;24.220;2024-01-30T03:43:26;99877.00;;;-0.20;76.25
55066;BME280;40964;42.114;24.220;2024-01-30T03:45:51;99881.91;;;-0.30;77.50
55066;BME280;40964;42.114;24.220;2024-01-30T03:48:17;99884.66;;;-0.18;77.44
55066;BME280;40964;42.114;24.220;2024-01-30T03:50:42;99891.50;;;-0.17;77.95
55066;BME280;40964;42.114;24.220;2024-01-30T03:53:08;99891.16;;;-0.25;79.28
55066;BME280;40964;42.114;24.220;2024-01-30T03:55:33;99894.56;;;-0.25;78.87
55066;BME280;40964;42.114;24.220;2024-01-30T03:57:58;99888.72;;;-0.14;78.78
55066;BME280;40964;42.114;24.220;2024-01-30T04:00:24;99883.78;;;-0.05;78.58
55066;BME280;40964;42.114;24.220;2024-01-30T04:02:49;99888.34;;;-0.08;77.77
55066;BME280;40964;42.114;24.220;2024-01-30T04:05:16;99876.84;;;-0.04;76.60
55066;BME280;40964;42.114;24.220;2024-01-30T04:07:42;99889.91;;;-0.06;77.76
55066;BME280;40964;42.114;24.220;2024-01-30T04:10:09;99883.06;;;-0.07;78.04
55066;BME280;40964;42.114;24.220;2024-01-30T04:12:35;99867.94;;;-0.13;78.32
55066;BME280;40964;42.114;24.220;2024-01-30T04:15:01;99883.94;;;0.07;78.08
55066;BME280;40964;42.114;24.220;2024-01-30T04:17:26;99887.25;;;0.09;78.07
55066;BME280;40964;42.114;24.220;2024-01-30T04:19:53;99899.69;;;0.16;78.84
55066;BME280;40964;42.114;24.220;2024-01-30T04:22:19;99890.81;;;-0.07;79.80
55066;BME280;40964;42.114;24.220;2024-01-30T04:24:44;99897.31;;;-0.28;80.46
55066;BME280;40964;42.114;24.220;2024-01-30T04:27:09;99895.88;;;-0.32;81.43
55066;BME280;40964;42.114;24.220;2024-01-30T04:29:35;99897.28;;;-0.41;81.29
55066;BME280;40964;42.114;24.220;2024-01-30T04:32:00;99910.47;;;-0.31;80.83
55066;BME280;40964;42.114;24.220;2024-01-30T04:34:26;99914.03;;;-0.19;79.34
55066;BME280;40964;42.114;24.220;2024-01-30T04:36:51;99904.34;;;-0.16;78.67
55066;BME280;40964;42.114;24.220;2024-01-30T04:39:16;99905.16;;;-0.15;78.64
55066;BME280;40964;42.114;24.220;2024-01-30T04:41:42;99890.13;;;-0.23;78.96
55066;BME280;40964;42.114;24.220;2024-01-30T04:44:07;99905.63;;;-0.09;78.90
55066;BME280;40964;42.114;24.220;2024-01-30T04:46:33;99901.16;;;-0.07;79.43
55066;BME280;40964;42.114;24.220;2024-01-30T04:49:01;99902.09;;;-0.08;78.95
55066;BME280;40964;42.114;24.220;2024-01-30T04:51:26;99902.09;;;-0.08;79.16
55066;BME280;40964;42.114;24.220;2024-01-30T04:53:52;99907.53;;;0.02;78.84
55066;BME280;40964;42.114;24.220;2024-01-30T04:56:17;99908.88;;;0.08;78.63
55066;BME280;40964;42.114;24.220;2024-01-30T04:58:43;99910.34;;;0.12;78.40
55066;BME280;40964;42.114;24.220;2024-01-30T05:01:08;99914.63;;;-0.02;78.54
55066;BME280;40964;42.114;24.220;2024-01-30T05:03:34;99922.72;;;0.07;78.00
55066;BME280;40964;42.114;24.220;2024-01-30T05:06:00;99919.03;;;0.11;76.88
55066;BME280;40964;42.114;24.220;2024-01-30T05:08:25;99932.34;;;0.05;78.54
55066;BME280;40964;42.114;24.220;2024-01-30T05:10:51;99932.34;;;0.05;78.99
55066;BME280;40964;42.114;24.220;2024-01-30T05:13:16;99928.38;;;-0.01;80.10
55066;BME280;40964;42.114;24.220;2024-01-30T05:15:42;99927.91;;;0.07;79.77
55066;BME280;40964;42.114;24.220;2024-01-30T05:18:07;99925.50;;;-0.38;83.86
55066;BME280;40964;42.114;24.220;2024-01-30T05:20:33;99936.50;;;-0.48;84.81
55066;BME280;40964;42.114;24.220;2024-01-30T05:22:58;99935.69;;;-0.49;84.06
55066;BME280;40964;42.114;24.220;2024-01-30T05:25:23;99925.25;;;-0.47;83.50
55066;BME280;40964;42.114;24.220;2024-01-30T05:27:49;99935.03;;;-0.38;83.46
55066;BME280;40964;42.114;24.220;2024-01-30T05:30:15;99935.03;;;-0.38;83.38
55066;BME280;40964;42.114;24.220;2024-01-30T05:32:40;99944.38;;;-0.36;82.95
55066;BME280;40964;42.114;24.220;2024-01-30T05:35:06;99932.63;;;-0.41;83.46
55066;BME280;40964;42.114;24.220;2024-01-30T05:37:33;99936.72;;;-0.51;83.65
55066;BME280;40964;42.114;24.220;2024-01-30T05:39:58;99926.53;;;-0.54;83.74
55066;BME280;40964;42.114;24.220;2024-01-30T05:42:24;99944.06;;;-0.45;83.43
55066;BME280;40964;42.114;24.220;2024-01-30T05:44:50;99936.78;;;-0.39;82.92
55066;BME280;40964;42.114;24.220;2024-01-30T05:47:15;99948.78;;;-0.38;82.45
55066;BME280;40964;42.114;24.220;2024-01-30T05:49:41;99924.41;;;-0.48;81.84
55066;BME280;40964;42.114;24.220;2024-01-30T05:52:07;99946.94;;;-0.36;81.28
55066;BME280;40964;42.114;24.220;2024-01-30T05:54:32;99940.66;;;-0.32;81.00
55066;BME280;40964;42.114;24.220;2024-01-30T05:56:58;99933.72;;;-0.31;80.54
55066;BME280;40964;42.114;24.220;2024-01-30T05:59:23;99935.47;;;-0.32;80.18
55066;BME280;40964;42.114;24.220;2024-01-30T06:01:49;99941.94;;;-0.24;80.09
55066;BME280;40964;42.114;24.220;2024-01-30T06:04:14;99927.72;;;-0.32;79.96
55066;BME280;40964;42.114;24.220;2024-01-30T06:06:40;99937.41;;;-0.21;80.36
55066;BME280;40964;42.114;24.220;2024-01-30T06:09:06;99918.31;;;-0.33;79.73
55066;BME280;40964;42.114;24.220;2024-01-30T06:11:34;99933.63;;;-0.15;79.07
55066;BME280;40964;42.114;24.220;2024-01-30T06:14:00;99933.41;;;-0.12;78.68
55066;BME280;40964;42.114;24.220;2024-01-30T06:16:25;99935.78;;;-0.09;77.85
55066;BME280;40964;42.114;24.220;2024-01-30T06:18:55;99936.25;;;-0.03;77.16
55066;BME280;40964;42.114;24.220;2024-01-30T06:21:20;99935.53;;;-0.05;75.96
55066;BME280;40964;42.114;24.220;2024-01-30T06:23:46;99935.78;;;-0.09;75.67
55066;BME280;40964;42.114;24.220;2024-01-30T06:26:11;99927.41;;;-0.13;75.71
55066;BME280;40964;42.114;24.220;2024-01-30T06:28:37;99921.75;;;-0.05;75.54
55066;BME280;40964;42.114;24.220;2024-01-30T06:31:02;99933.81;;;0.09;75.94
55066;BME280;40964;42.114;24.220;2024-01-30T06:33:28;99936.94;;;0.14;76.37
55066;BME280;40964;42.114;24.220;2024-01-30T06:35:53;99922.81;;;0.19;76.67
55066;BME280;40964;42.114;24.220;2024-01-30T06:38:19;99936.59;;;0.33;75.67
55066;BME280;40964;42.114;24.220;2024-01-30T06:40:44;99941.88;;;0.31;75.80
55066;BME280;40964;42.114;24.220;2024-01-30T06:43:10;99951.75;;;0.39;74.75
55066;BME280;40964;42.114;24.220;2024-01-30T06:45:36;99948.22;;;0.40;72.53
55066;BME280;40964;42.114;24.220;2024-01-30T06:48:02;99970.19;;;0.47;70.75
55066;BME280;40964;42.114;24.220;2024-01-30T06:50:28;99975.63;;;0.30;70.78
55066;BME280;40964;42.114;24.220;2024-01-30T06:52:53;99967.63;;;0.20;71.28
55066;BME280;40964;42.114;24.220;2024-01-30T06:55:19;99976.31;;;0.19;71.17
55066;BME280;40964;42.114;24.220;2024-01-30T06:57:44;99975.13;;;0.37;70.89
55066;BME280;40964;42.114;24.220;2024-01-30T07:00:10;99975.78;;;0.53;69.36
55066;BME280;40964;42.114;24.220;2024-01-30T07:02:36;99967.75;;;0.58;69.58
55066;BME280;40964;42.114;24.220;2024-01-30T07:05:02;99972.09;;;0.57;69.26
55066;BME280;40964;42.114;24.220;2024-01-30T07:07:28;99979.25;;;0.67;68.01
55066;BME280;40964;42.114;24.220;2024-01-30T07:09:54;99973.16;;;0.80;66.79
55066;BME280;40964;42.114;24.220;2024-01-30T07:12:23;99972.47;;;0.91;67.09
55066;BME280;40964;42.114;24.220;2024-01-30T07:14:50;99966.47;;;1.03;67.16
55066;BME280;40964;42.114;24.220;2024-01-30T07:17:16;99976.31;;;0.98;68.32
55066;BME280;40964;42.114;24.220;2024-01-30T07:19:41;99972.44;;;0.78;74.68
55066;BME280;40964;42.114;24.220;2024-01-30T07:22:07;99976.09;;;0.89;75.27
55066;BME280;40964;42.114;24.220;2024-01-30T07:24:33;99966.31;;;0.79;73.54
55066;BME280;40964;42.114;24.220;2024-01-30T07:26:58;99979.31;;;0.92;73.93
55066;BME280;40964;42.114;24.220;2024-01-30T07:29:24;99972.59;;;1.02;72.97
55066;BME280;40964;42.114;24.220;2024-01-30T07:31:49;99982.91;;;0.90;69.62
55066;BME280;40964;42.114;24.220;2024-01-30T07:34:15;99978.66;;;0.76;74.77
55066;BME280;40964;42.114;24.220;2024-01-30T07:36:40;99959.97;;;0.58;76.21
55066;BME280;40964;42.114;24.220;2024-01-30T07:39:06;99980.09;;;0.67;76.88
55066;BME280;40964;42.114;24.220;2024-01-30T07:41:31;99981.47;;;0.73;76.75
55066;BME280;40964;42.114;24.220;2024-01-30T07:43:57;99976.91;;;0.76;76.49
55066;BME280;40964;42.114;24.220;2024-01-30T07:46:23;99968.31;;;0.76;76.95
55066;BME280;40964;42.114;24.220;2024-01-30T07:48:48;99977.44;;;0.81;76.34
55066;BME280;40964;42.114;24.220;2024-01-30T07:51:13;99971.53;;;0.92;74.38
55066;BME280;40964;42.114;24.220;2024-01-30T07:53:39;99969.50;;;1.10;72.77
55066;BME280;40964;42.114;24.220;2024-01-30T07:56:07;99974.38;;;1.27;70.36
55066;BME280;40964;42.114;24.220;2024-01-30T07:58:33;99973.97;;;1.46;67.92
55066;BME280;40964;42.114;24.220;2024-01-30T08:00:58;99983.19;;;1.63;67.27
55066;BME280;40964;42.114;24.220;2024-01-30T08:03:25;99969.66;;;1.70;69.20
55066;BME280;40964;42.114;24.220;2024-01-30T08:05:51;99972.06;;;1.74;69.88
55066;BME280;40964;42.114;24.220;2024-01-30T08:08:16;99970.13;;;1.88;69.58
55066;BME280;40964;42.114;24.220;2024-01-30T08:10:42;99973.53;;;2.02;67.38
55066;BME280;40964;42.114;24.220;2024-01-30T08:13:07;99962.09;;;2.04;67.15
55066;BME280;40964;42.114;24.220;2024-01-30T08:15:34;99974.84;;;2.20;66.62
55066;BME280;40964;42.114;24.220;2024-01-30T08:18:00;99973.50;;;2.38;61.82
55066;BME280;40964;42.114;24.220;2024-01-30T08:20:25;99949.44;;;2.36;63.99
55066;BME280;40964;42.114;24.220;2024-01-30T08:22:51;99951.56;;;2.42;62.37
55066;BME280;40964;42.114;24.220;2024-01-30T08:25:17;99949.75;;;2.55;58.76
55066;BME280;40964;42.114;24.220;2024-01-30T08:27:42;99954.66;;;2.47;58.05
55066;BME280;40964;42.114;24.220;2024-01-30T08:30:08;99954.38;;;2.15;58.65
55066;BME280;40964;42.114;24.220;2024-01-30T08:32:34;99949.31;;;2.38;58.00
55066;BME280;40964;42.114;24.220;2024-01-30T08:34:59;99960.56;;;2.49;57.76
55066;BME280;40964;42.114;24.220;2024-01-30T08:37:29;99951.50;;;2.55;59.91
55066;BME280;40964;42.114;24.220;2024-01-30T08:39:54;99947.47;;;2.51;57.62
55066;BME280;40964;42.114;24.220;2024-01-30T08:42:20;99936.34;;;2.38;55.34
55066;BME280;40964;42.114;24.220;2024-01-30T08:44:50;99949.09;;;2.41;54.77
55066;BME280;40964;42.114;24.220;2024-01-30T08:47:17;99945.50;;;2.31;56.45
55066;BME280;40964;42.114;24.220;2024-01-30T08:49:44;99955.41;;;2.25;58.30
55066;BME280;40964;42.114;24.220;2024-01-30T08:52:10;99950.91;;;2.27;58.54
55066;BME280;40964;42.114;24.220;2024-01-30T08:54:36;99944.66;;;2.06;56.64
55066;BME280;40964;42.114;24.220;2024-01-30T08:57:01;99962.91;;;2.17;58.04
55066;BME280;40964;42.114;24.220;2024-01-30T08:59:27;99956.16;;;2.15;57.11
55066;BME280;40964;42.114;24.220;2024-01-30T09:01:53;99959.84;;;2.23;56.98
55066;BME280;40964;42.114;24.220;2024-01-30T09:04:21;99955.56;;;2.35;57.56
55066;BME280;40964;42.114;24.220;2024-01-30T09:06:47;99954.06;;;2.44;56.49
55066;BME280;40964;42.114;24.220;2024-01-30T09:09:13;99955.78;;;2.32;58.23
55066;BME280;40964;42.114;24.220;2024-01-30T09:11:39;99953.56;;;2.39;56.64
55066;BME280;40964;42.114;24.220;2024-01-30T09:14:05;99949.88;;;2.30;56.70
55066;BME280;40964;42.114;24.220;2024-01-30T09:16:30;99949.31;;;2.38;57.36
55066;BME280;40964;42.114;24.220;2024-01-30T09:18:56;99948.66;;;2.47;57.50
55066;BME280;40964;42.114;24.220;2024-01-30T09:21:21;99955.38;;;2.73;57.71
55066;BME280;40964;42.114;24.220;2024-01-30T09:23:47;99951.38;;;2.80;57.38
55066;BME280;40964;42.114;24.220;2024-01-30T09:26:12;99950.47;;;2.58;58.43
55066;BME280;40964;42.114;24.220;2024-01-30T09:28:38;99946.09;;;2.58;58.08
55066;BME280;40964;42.114;24.220;2024-01-30T09:31:03;99937.19;;;2.84;58.94
55066;BME280;40964;42.114;24.220;2024-01-30T09:33:29;99939.19;;;2.70;57.42
55066;BME280;40964;42.114;24.220;2024-01-30T09:35:54;99926.28;;;2.68;57.92
55066;BME280;40964;42.114;24.220;2024-01-30T09:38:20;99937.75;;;2.77;57.83
55066;BME280;40964;42.114;24.220;2024-01-30T09:40:53;99920.44;;;2.89;58.00
55066;BME280;40964;42.114;24.220;2024-01-30T09:43:22;99918.94;;;3.08;57.53
55066;BME280;40964;42.114;24.220;2024-01-30T09:45:50;99901.69;;;3.30;55.95
55066;BME280;40964;42.114;24.220;2024-01-30T09:48:16;99904.44;;;3.51;53.97
55066;BME280;40964;42.114;24.220;2024-01-30T09:50:41;99905.47;;;3.59;53.47
55066;BME280;40964;42.114;24.220;2024-01-30T09:53:08;99900.84;;;3.74;52.32
55066;BME280;40964;42.114;24.220;2024-01-30T09:55:35;99904.75;;;3.80;54.31
55066;BME280;40964;42.114;24.220;2024-01-30T09:58:01;99891.34;;;3.84;53.60
55066;BME280;40964;42.114;24.220;2024-01-30T10:00:27;99882.69;;;3.95;53.69
55066;BME280;40964;42.114;24.220;2024-01-30T10:02:53;99885.97;;;4.08;52.17
55066;BME280;40964;42.114;24.220;2024-01-30T10:05:19;99871.91;;;3.99;51.71
55066;BME280;40964;42.114;24.220;2024-01-30T10:08:06;99880.50;;;4.43;50.54
55066;BME280;40964;42.114;24.220;2024-01-30T10:10:33;99833.69;;;4.32;49.10
55066;BME280;40964;42.114;24.220;2024-01-30T10:12:59;99873.50;;;4.65;49.70
55066;BME280;40964;42.114;24.220;2024-01-30T10:15:25;99874.53;;;4.52;48.71
55066;BME280;40964;42.114;24.220;2024-01-30T10:17:51;99866.09;;;4.60;49.21
55066;BME280;40964;42.114;24.220;2024-01-30T10:20:16;99856.78;;;4.67;49.45
55066;BME280;40964;42.114;24.220;2024-01-30T10:22:44;99856.28;;;4.52;48.58
55066;BME280;40964;42.114;24.220;2024-01-30T10:25:11;99858.22;;;4.50;47.74
55066;BME280;40964;42.114;24.220;2024-01-30T10:27:36;99854.50;;;4.32;48.34
55066;BME280;40964;42.114;24.220;2024-01-30T10:30:03;99851.44;;;4.48;48.58
55066;BME280;40964;42.114;24.220;2024-01-30T10:32:29;99840.59;;;4.43;47.97
55066;BME280;40964;42.114;24.220;2024-01-30T10:34:54;99844.22;;;4.51;48.73
55066;BME280;40964;42.114;24.220;2024-01-30T10:37:21;99854.44;;;4.64;48.51
55066;BME280;40964;42.114;24.220;2024-01-30T10:39:53;99853.81;;;4.72;48.48
55066;BME280;40964;42.114;24.220;2024-01-30T10:42:20;99842.50;;;4.62;47.13
55066;BME280;40964;42.114;24.220;2024-01-30T10:45:05;99856.22;;;4.64;48.01
55066;BME280;40964;42.114;24.220;2024-01-30T10:47:35;99839.38;;;4.47;49.01
55066;BME280;40964;42.114;24.220;2024-01-30T10:50:03;99848.50;;;4.83;47.39
55066;BME280;40964;42.114;24.220;2024-01-30T10:52:29;99854.19;;;4.88;47.43
55066;BME280;40964;42.114;24.220;2024-01-30T10:54:55;99850.63;;;4.89;45.36
55066;BME280;40964;42.114;24.220;2024-01-30T10:57:27;99847.97;;;4.79;46.05
55066;BME280;40964;42.114;24.220;2024-01-30T10:59:59;99835.63;;;4.81;47.95
55066;BME280;40964;42.114;24.220;2024-01-30T11:05:00;99830.50;;;5.01;46.99
55066;BME280;40964;42.114;24.220;2024-01-30T11:07:28;99836.63;;;4.90;46.32
55066;BME280;40964;42.114;24.220;2024-01-30T11:10:02;99824.97;;;4.94;46.41
55066;BME280;40964;42.114;24.220;2024-01-30T11:12:29;99830.97;;;4.85;47.04
55066;BME280;40964;42.114;24.220;2024-01-30T11:15:06;99835.06;;;4.78;46.77
55066;BME280;40964;42.114;24.220;2024-01-30T11:17:51;99833.41;;;5.07;47.13
55066;BME280;40964;42.114;24.220;2024-01-30T11:20:30;99815.78;;;5.30;46.75
55066;BME280;40964;42.114;24.220;2024-01-30T11:23:01;99828.19;;;5.48;46.46
55066;BME280;40964;42.114;24.220;2024-01-30T11:25:33;99822.44;;;5.63;46.09
55066;BME280;40964;42.114;24.220;2024-01-30T11:27:58;99826.38;;;5.38;46.15
55066;BME280;40964;42.114;24.220;2024-01-30T11:30:29;99823.31;;;5.24;44.99
55066;BME280;40964;42.114;24.220;2024-01-30T11:35:31;99825.84;;;5.04;47.30
55066;BME280;40964;42.114;24.220;2024-01-30T11:37:58;99812.88;;;4.93;47.33
55066;BME280;40964;42.114;24.220;2024-01-30T11:40:27;99819.75;;;4.94;48.26
55066;BME280;40964;42.114;24.220;2024-01-30T11:42:53;99819.41;;;5.08;46.75
55066;BME280;40964;42.114;24.220;2024-01-30T11:45:19;99813.63;;;5.05;47.01
55066;BME280;40964;42.114;24.220;2024-01-30T11:47:45;99820.59;;;4.95;46.34
55066;BME280;40964;42.114;24.220;2024-01-30T11:50:10;99812.56;;;4.77;47.12
55066;BME280;40964;42.114;24.220;2024-01-30T11:52:36;99805.66;;;4.76;47.17
55066;BME280;40964;42.114;24.220;2024-01-30T11:55:02;99803.56;;;4.60;48.28
55066;BME280;40964;42.114;24.220;2024-01-30T11:57:29;99807.94;;;4.60;48.16
55066;BME280;40964;42.114;24.220;2024-01-30T11:59:54;99802.59;;;4.61;48.31
55066;BME280;40964;42.114;24.220;2024-01-30T12:02:19;99801.22;;;4.67;47.77
55066;BME280;40964;42.114;24.220;2024-01-30T12:04:45;99787.31;;;4.77;48.16
55066;BME280;40964;42.114;24.220;2024-01-30T12:07:11;99789.94;;;4.56;47.23
55066;BME280;40964;42.114;24.220;2024-01-30T12:09:38;99792.75;;;4.44;48.52
55066;BME280;40964;42.114;24.220;2024-01-30T12:12:03;99778.78;;;4.24;47.96
55066;BME280;40964;42.114;24.220;2024-01-30T12:14:31;99772.50;;;4.26;48.34
55066;BME280;40964;42.114;24.220;2024-01-30T12:16:56;99776.16;;;4.45;48.34
55066;BME280;40964;42.114;24.220;2024-01-30T12:19:25;99776.53;;;4.40;48.69
55066;BME280;40964;42.114;24.220;2024-01-30T12:21:55;99762.97;;;4.16;49.42
55066;BME280;40964;42.114;24.220;2024-01-30T12:24:21;99759.22;;;4.09;49.18
55066;BME280;40964;42.114;24.220;2024-01-30T12:26:47;99754.97;;;4.08;48.72
55066;BME280;40964;42.114;24.220;2024-01-30T12:29:14;99742.81;;;4.39;48.46
55066;BME280;40964;42.114;24.220;2024-01-30T12:31:42;99746.16;;;4.81;46.71
55066;BME280;40964;42.114;24.220;2024-01-30T12:34:07;99748.16;;;5.08;46.60
55066;BME280;40964;42.114;24.220;2024-01-30T12:36:34;99735.28;;;5.16;46.22
55066;BME280;40964;42.114;24.220;2024-01-30T12:39:00;99740.97;;;5.31;46.39
55066;BME280;40964;42.114;24.220;2024-01-30T12:41:26;99733.41;;;5.47;44.79
55066;BME280;40964;42.114;24.220;2024-01-30T12:43:54;99737.56;;;5.50;45.37
55066;BME280;40964;42.114;24.220;2024-01-30T12:46:19;99736.44;;;5.62;45.32
55066;BME280;40964;42.114;24.220;2024-01-30T12:48:45;99736.88;;;5.57;44.71
55066;BME280;40964;42.114;24.220;2024-01-30T12:51:10;99736.69;;;5.30;45.26
55066;BME280;40964;42.114;24.220;2024-01-30T12:53:36;99719.94;;;5.23;45.55
55066;BME280;40964;42.114;24.220;2024-01-30T12:56:01;99735.47;;;5.34;44.84
55066;BME280;40964;42.114;24.220;2024-01-30T12:58:27;99719.13;;;5.41;44.21